Time;durP1;ratioP1;P1;durP2;ratioP2;P2;SDS_P1;SDS_P2;PMS_P1;PMS_P2;Temp;Humidity;BMP_temperature;BMP_pressure;BME280_temperature;BME280_humidity;BME280_pressure;Samples;Min_cycle;Max_cycle;Signal;HPM_P1;HPM_P2
2021/07/02 00:01:07;;;;;;;7.45;4.15;;;16.40;78.60;;;;;;5024837;28;20030;-65
2021/07/02 00:03:34;;;;;;;9.18;4.38;;;16.40;78.40;;;;;;5024819;28;20097;-65
2021/07/02 00:06:00;;;;;;;9.43;4.97;;;16.30;78.40;;;;;;5024728;28;20085;-64
2021/07/02 00:08:26;;;;;;;6.78;4.40;;;16.30;78.80;;;;;;5025233;28;20034;-65
2021/07/02 00:10:52;;;;;;;7.05;5.03;;;16.30;78.70;;;;;;5023595;28;20038;-65
2021/07/02 00:13:18;;;;;;;8.05;4.40;;;16.40;78.50;;;;;;5024640;28;20080;-65
2021/07/02 00:15:43;;;;;;;8.88;4.13;;;16.40;78.40;;;;;;5024814;28;20038;-65
2021/07/02 00:18:09;;;;;;;8.43;4.60;;;16.50;78.40;;;;;;5025331;28;20029;-65
2021/07/02 00:20:35;;;;;;;7.10;4.70;;;16.50;77.90;;;;;;5025004;28;20033;-64
2021/07/02 00:23:00;;;;;;;5.40;4.00;;;16.50;77.80;;;;;;5023029;28;20128;-64
2021/07/02 00:25:26;;;;;;;6.75;4.03;;;16.40;78.40;;;;;;5024583;28;20041;-65
2021/07/02 00:27:51;;;;;;;8.82;4.07;;;16.40;78.50;;;;;;5024422;28;20030;-64
2021/07/02 00:30:17;;;;;;;6.05;3.95;;;16.50;78.10;;;;;;5024183;28;20072;-65
2021/07/02 00:32:42;;;;;;;7.88;4.60;;;16.50;77.90;;;;;;5024529;28;20034;-65
2021/07/02 00:35:08;;;;;;;5.63;4.03;;;16.50;77.80;;;;;;5024340;28;20054;-65
2021/07/02 00:37:34;;;;;;;6.90;4.10;;;16.60;77.70;;;;;;5024381;28;20040;-65
2021/07/02 00:39:59;;;;;;;5.90;4.43;;;16.60;77.50;;;;;;5024245;28;20030;-64
2021/07/02 00:42:25;;;;;;;6.32;4.20;;;16.60;77.40;;;;;;5024029;28;20036;-64
2021/07/02 00:44:51;;;;;;;6.22;4.53;;;16.60;77.50;;;;;;5024400;28;20026;-65
2021/07/02 00:47:17;;;;;;;6.90;4.32;;;16.60;77.40;;;;;;5023342;28;20030;-65
2021/07/02 00:49:43;;;;;;;6.10;4.00;;;16.70;77.10;;;;;;5023904;28;20076;-65
2021/07/02 00:52:10;;;;;;;9.35;4.22;;;16.80;76.70;;;;;;5023781;28;20042;-65
2021/07/02 00:54:36;;;;;;;5.78;4.28;;;16.80;76.40;;;;;;5023138;28;20054;-65
2021/07/02 00:57:03;;;;;;;7.95;3.97;;;16.80;76.40;;;;;;5023837;28;20030;-64
2021/07/02 00:59:29;;;;;;;8.68;4.30;;;16.70;76.80;;;;;;5024450;28;20190;-65
2021/07/02 01:01:55;;;;;;;5.72;4.32;;;16.50;77.40;;;;;;5022783;28;20030;-64
2021/07/02 01:04:22;;;;;;;7.18;4.60;;;16.50;77.60;;;;;;5023890;28;20383;-65
2021/07/02 01:06:48;;;;;;;7.47;4.32;;;16.60;77.70;;;;;;5023718;28;20228;-65
2021/07/02 01:09:16;;;;;;;7.18;3.95;;;16.60;77.20;;;;;;5022915;28;20041;-65
2021/07/02 01:11:42;;;;;;;5.82;4.43;;;16.70;77.10;;;;;;5024108;28;20033;-64
2021/07/02 01:14:07;;;;;;;7.50;4.50;;;16.70;76.80;;;;;;5024175;28;20234;-65
2021/07/02 01:16:33;;;;;;;7.85;4.40;;;16.60;76.80;;;;;;5024057;28;20093;-65
2021/07/02 01:18:59;;;;;;;9.32;4.80;;;16.70;76.70;;;;;;5023659;28;20034;-64
2021/07/02 01:21:24;;;;;;;7.53;5.43;;;16.60;76.90;;;;;;5023428;28;20057;-64
2021/07/02 01:23:50;;;;;;;7.20;4.18;;;16.50;77.30;;;;;;5024367;28;20026;-65
2021/07/02 01:26:16;;;;;;;7.80;4.50;;;16.40;77.60;;;;;;5024136;28;20062;-64
2021/07/02 01:28:42;;;;;;;11.68;5.05;;;16.40;77.70;;;;;;5022791;28;20034;-65
2021/07/02 01:31:08;;;;;;;6.20;4.57;;;16.40;77.90;;;;;;5023376;28;20034;-64
2021/07/02 01:33:34;;;;;;;11.30;4.45;;;16.50;77.50;;;;;;5022240;28;20041;-65
2021/07/02 01:36:06;;;;;;;6.93;4.35;;;16.60;77.00;;;;;;5022653;28;20053;-65
2021/07/02 01:38:32;;;;;;;12.48;4.32;;;16.50;77.50;;;;;;5023424;28;20313;-64
2021/07/02 01:40:58;;;;;;;9.93;4.30;;;16.40;77.60;;;;;;5023905;28;20034;-64
2021/07/02 01:43:26;;;;;;;5.82;4.30;;;16.40;77.40;;;;;;5023507;28;20092;-65
2021/07/02 01:45:51;;;;;;;7.95;4.07;;;16.40;77.60;;;;;;5023781;28;20045;-65
2021/07/02 01:48:17;;;;;;;8.05;4.25;;;16.40;77.60;;;;;;5022142;28;20064;-65
2021/07/02 01:50:42;;;;;;;7.10;4.65;;;16.60;77.10;;;;;;5023836;28;20345;-64
2021/07/02 01:53:08;;;;;;;6.30;4.47;;;16.70;76.60;;;;;;5023735;28;20038;-64
2021/07/02 01:55:33;;;;;;;6.00;4.10;;;16.50;76.90;;;;;;5023267;28;20084;-64
2021/07/02 01:57:59;;;;;;;5.35;4.10;;;16.30;77.50;;;;;;5022408;28;20029;-65
2021/07/02 02:00:25;;;;;;;7.57;4.60;;;16.30;77.80;;;;;;5023310;28;20042;-64
2021/07/02 02:02:50;;;;;;;6.53;4.28;;;16.30;77.70;;;;;;5024248;28;20089;-65
2021/07/02 02:05:16;;;;;;;6.20;3.95;;;16.30;77.80;;;;;;5024004;28;20365;-64
2021/07/02 02:07:41;;;;;;;7.13;4.68;;;16.30;77.60;;;;;;5023642;28;20104;-64
2021/07/02 02:10:07;;;;;;;7.35;3.97;;;16.30;77.50;;;;;;5023383;28;20029;-65
2021/07/02 02:12:33;;;;;;;6.78;4.20;;;16.20;77.90;;;;;;5024144;28;20100;-64
2021/07/02 02:14:58;;;;;;;7.03;4.45;;;16.20;77.40;;;;;;5026560;28;20045;-64
2021/07/02 02:17:24;;;;;;;8.82;4.10;;;16.20;77.00;;;;;;5027621;28;20056;-65
2021/07/02 02:19:49;;;;;;;6.35;4.25;;;16.20;77.10;;;;;;5026567;28;20042;-64
2021/07/02 02:22:15;;;;;;;8.50;4.30;;;16.10;77.40;;;;;;5026343;28;20060;-64
2021/07/02 02:24:41;;;;;;;5.47;4.20;;;16.10;78.00;;;;;;5026731;28;20041;-64
2021/07/02 02:27:06;;;;;;;5.80;4.32;;;16.20;77.80;;;;;;5026635;28;20037;-64
2021/07/02 02:29:32;;;;;;;5.60;4.07;;;16.20;77.70;;;;;;5027101;28;20029;-65
2021/07/02 02:31:57;;;;;;;7.28;4.50;;;16.20;77.20;;;;;;5026700;28;20244;-64
2021/07/02 02:34:23;;;;;;;6.88;4.20;;;16.20;77.20;;;;;;5026676;28;20098;-64
2021/07/02 02:36:49;;;;;;;6.18;4.35;;;16.00;77.40;;;;;;5026398;28;20068;-64
2021/07/02 02:39:14;;;;;;;6.22;4.18;;;16.00;78.20;;;;;;5025373;28;20097;-64
2021/07/02 02:41:40;;;;;;;6.88;4.28;;;16.10;78.10;;;;;;5026591;28;20030;-64
2021/07/02 02:44:05;;;;;;;5.65;4.18;;;16.10;77.50;;;;;;5026634;28;20034;-64
2021/07/02 02:46:31;;;;;;;6.53;4.40;;;16.10;77.70;;;;;;5026035;28;20232;-64
2021/07/02 02:48:57;;;;;;;6.63;4.32;;;16.10;77.20;;;;;;5026129;28;20030;-64
2021/07/02 02:51:22;;;;;;;5.63;4.28;;;16.00;77.20;;;;;;5026094;28;20084;-64
2021/07/02 02:53:48;;;;;;;6.90;4.47;;;16.00;76.90;;;;;;5026399;28;20034;-64
2021/07/02 02:56:13;;;;;;;6.55;4.03;;;16.00;76.60;;;;;;5025880;28;20042;-64
2021/07/02 02:58:39;;;;;;;7.03;4.43;;;16.00;76.80;;;;;;5026209;28;20034;-64
2021/07/02 03:01:04;;;;;;;7.18;4.53;;;16.00;76.70;;;;;;5025776;28;20053;-65
2021/07/02 03:03:30;;;;;;;7.50;4.40;;;16.00;76.90;;;;;;5025730;28;20195;-64
2021/07/02 03:05:55;;;;;;;7.65;4.30;;;15.90;77.00;;;;;;5026028;28;20339;-64
2021/07/02 03:08:21;;;;;;;9.77;4.35;;;15.90;77.40;;;;;;5025986;28;20148;-65
2021/07/02 03:10:46;;;;;;;5.88;4.00;;;16.00;76.80;;;;;;5026031;28;20105;-65
2021/07/02 03:13:12;;;;;;;6.45;4.22;;;15.90;76.60;;;;;;5025451;28;20053;-64
2021/07/02 03:15:38;;;;;;;6.35;3.88;;;15.90;76.60;;;;;;5025480;28;20041;-64
2021/07/02 03:18:03;;;;;;;5.38;4.13;;;15.80;77.00;;;;;;5025450;28;20044;-64
2021/07/02 03:20:29;;;;;;;6.78;4.63;;;15.80;77.00;;;;;;5025872;28;20034;-64
2021/07/02 03:22:54;;;;;;;8.68;4.93;;;15.90;76.70;;;;;;5024786;28;20049;-65
2021/07/02 03:25:20;;;;;;;6.32;4.57;;;15.90;76.70;;;;;;5025317;28;20034;-64
2021/07/02 03:27:45;;;;;;;9.68;4.38;;;15.90;76.90;;;;;;5025382;28;20065;-64
2021/07/02 03:30:12;;;;;;;7.93;4.35;;;15.90;77.00;;;;;;5025193;28;20089;-65
2021/07/02 03:32:38;;;;;;;7.63;4.45;;;16.00;77.00;;;;;;5025853;28;20038;-65
2021/07/02 03:35:04;;;;;;;9.10;4.90;;;16.20;76.50;;;;;;5025606;28;20042;-65
2021/07/02 03:37:30;;;;;;;9.20;4.55;;;16.20;76.20;;;;;;5007471;28;20080;-65
2021/07/02 03:39:55;;;;;;;10.27;4.53;;;16.20;76.20;;;;;;5025075;28;20033;-65
2021/07/02 03:42:21;;;;;;;6.80;4.35;;;16.10;76.50;;;;;;5025422;28;20029;-65
2021/07/02 03:44:46;;;;;;;7.22;4.90;;;16.20;76.50;;;;;;5025712;28;20034;-64
2021/07/02 03:47:12;;;;;;;6.78;5.00;;;16.20;76.30;;;;;;5025692;28;20093;-65
2021/07/02 03:49:37;;;;;;;6.50;4.13;;;16.20;76.50;;;;;;5024845;28;20034;-65
2021/07/02 03:52:03;;;;;;;6.43;4.85;;;16.20;76.60;;;;;;5024927;28;20201;-64
2021/07/02 03:54:29;;;;;;;6.35;4.25;;;16.20;76.90;;;;;;5024747;28;20038;-65
2021/07/02 03:57:13;;;;;;;11.07;5.50;;;16.00;77.40;;;;;;5023590;28;20076;-65
2021/07/02 03:59:43;;;;;;;9.93;5.13;;;16.00;78.10;;;;;;5025717;28;20057;-65
2021/07/02 04:02:09;;;;;;;8.27;5.00;;;16.30;77.30;;;;;;5024528;28;20096;-65
2021/07/02 04:04:36;;;;;;;7.07;4.80;;;16.20;77.20;;;;;;5024942;28;20262;-65
2021/07/02 04:07:03;;;;;;;6.80;4.75;;;16.30;76.80;;;;;;5024736;28;20041;-65
2021/07/02 04:09:28;;;;;;;10.50;5.32;;;16.30;76.90;;;;;;5024614;28;20050;-65
2021/07/02 04:11:54;;;;;;;9.02;5.10;;;16.30;76.80;;;;;;5024889;28;20080;-65
2021/07/02 04:14:19;;;;;;;8.50;5.40;;;16.20;77.20;;;;;;5025045;28;20029;-65
2021/07/02 04:16:45;;;;;;;8.13;5.57;;;16.20;77.60;;;;;;5023697;28;20213;-64
2021/07/02 04:19:10;;;;;;;7.43;5.50;;;16.20;77.60;;;;;;5039810;28;20033;-64
2021/07/02 04:21:36;;;;;;;10.10;6.03;;;16.20;77.60;;;;;;5024233;28;20046;-64
2021/07/02 04:24:01;;;;;;;7.30;5.18;;;16.20;77.90;;;;;;5024224;28;20030;-65
2021/07/02 04:26:27;;;;;;;6.82;4.97;;;16.20;77.90;;;;;;5025189;28;20030;-64
2021/07/02 04:28:52;;;;;;;7.43;5.10;;;16.40;77.30;;;;;;5024589;28;20099;-64
2021/07/02 04:31:18;;;;;;;9.77;5.13;;;16.40;76.90;;;;;;5024352;28;20034;-64
2021/07/02 04:33:44;;;;;;;7.18;4.80;;;16.40;76.80;;;;;;5024308;28;20029;-65
2021/07/02 04:36:09;;;;;;;7.20;4.95;;;16.50;76.70;;;;;;5023296;28;20041;-64
2021/07/02 04:38:35;;;;;;;6.95;5.10;;;16.40;76.80;;;;;;5024546;28;20030;-64
2021/07/02 04:41:00;;;;;;;9.93;5.25;;;16.50;76.80;;;;;;5024564;28;20038;-64
2021/07/02 04:43:26;;;;;;;9.00;5.57;;;16.50;76.80;;;;;;5024131;28;20225;-64
2021/07/02 04:45:51;;;;;;;6.18;4.70;;;16.50;76.80;;;;;;5024083;28;20029;-64
2021/07/02 04:48:17;;;;;;;7.55;4.75;;;16.60;76.80;;;;;;5024179;28;20026;-64
2021/07/02 04:50:42;;;;;;;7.70;5.35;;;16.50;76.90;;;;;;5024673;28;20072;-63
2021/07/02 04:53:08;;;;;;;10.52;5.15;;;16.50;77.00;;;;;;5024268;28;20261;-64
2021/07/02 04:55:33;;;;;;;8.35;5.28;;;16.50;77.20;;;;;;5024114;28;20076;-63
2021/07/02 04:57:59;;;;;;;9.05;5.10;;;16.60;77.20;;;;;;5024027;28;20236;-63
2021/07/02 05:00:26;;;;;;;9.68;5.15;;;16.60;77.30;;;;;;5023888;28;20037;-65
2021/07/02 05:02:52;;;;;;;7.28;4.72;;;16.50;77.50;;;;;;5024203;28;20217;-65
2021/07/02 05:05:18;;;;;;;9.52;5.40;;;16.50;77.90;;;;;;5024395;28;20029;-65
2021/07/02 05:07:43;;;;;;;7.30;5.20;;;16.40;78.20;;;;;;5024075;28;20149;-64
2021/07/02 05:10:09;;;;;;;9.45;5.90;;;16.40;78.40;;;;;;5022750;28;20030;-66
2021/07/02 05:12:34;;;;;;;10.20;5.70;;;16.40;78.40;;;;;;5022450;28;20037;-66
2021/07/02 05:15:00;;;;;;;9.40;6.05;;;16.50;78.40;;;;;;5023626;28;20033;-65
2021/07/02 05:17:26;;;;;;;9.45;5.45;;;16.60;78.10;;;;;;5024329;28;20034;-63
2021/07/02 05:19:52;;;;;;;11.25;6.25;;;16.60;78.20;;;;;;5023514;28;20099;-63
2021/07/02 05:22:19;;;;;;;8.80;5.57;;;16.70;78.20;;;;;;5023437;28;20042;-62
2021/07/02 05:24:45;;;;;;;8.80;5.70;;;16.70;78.00;;;;;;5023460;28;20049;-63
2021/07/02 05:27:11;;;;;;;10.13;5.43;;;16.80;77.90;;;;;;5022437;28;20042;-63
2021/07/02 05:29:36;;;;;;;9.15;5.30;;;16.80;77.80;;;;;;5024177;28;20068;-63
2021/07/02 05:32:02;;;;;;;8.93;5.68;;;16.80;77.90;;;;;;5023955;28;20038;-63
2021/07/02 05:34:28;;;;;;;10.30;5.85;;;16.80;78.10;;;;;;5023432;28;20037;-63
2021/07/02 05:36:53;;;;;;;8.60;6.20;;;16.80;78.20;;;;;;5023492;28;20054;-62
2021/07/02 05:39:19;;;;;;;9.93;5.80;;;16.80;78.20;;;;;;5023270;28;20026;-64
2021/07/02 05:41:44;;;;;;;7.90;5.00;;;16.90;77.90;;;;;;5023026;28;20132;-63
2021/07/02 05:44:10;;;;;;;10.40;5.55;;;16.90;78.10;;;;;;5023745;28;20038;-63
2021/07/02 05:46:35;;;;;;;9.52;5.05;;;16.90;77.90;;;;;;5024786;28;20042;-63
2021/07/02 05:49:04;;;;;;;7.97;5.15;;;16.80;78.10;;;;;;5027071;28;20037;-63
2021/07/02 05:51:29;;;;;;;8.77;5.80;;;16.90;78.10;;;;;;5027198;28;20344;-63
2021/07/02 05:53:55;;;;;;;9.15;5.60;;;16.90;78.50;;;;;;5027192;28;20081;-63
2021/07/02 05:56:27;;;;;;;7.53;5.18;;;16.80;78.70;;;;;;5027659;28;20068;-63
2021/07/02 05:58:53;;;;;;;8.75;5.13;;;16.90;78.40;;;;;;5027406;28;20045;-63
2021/07/02 06:01:18;;;;;;;9.75;5.88;;;17.00;78.30;;;;;;5026890;28;20229;-63
2021/07/02 06:03:44;;;;;;;10.75;5.82;;;17.10;77.90;;;;;;5026863;28;20187;-63
2021/07/02 06:06:09;;;;;;;7.25;5.65;;;17.00;78.20;;;;;;5026805;28;20030;-63
2021/07/02 06:08:35;;;;;;;9.68;5.20;;;17.00;78.30;;;;;;5027410;28;20026;-64
2021/07/02 06:11:01;;;;;;;9.10;5.45;;;17.00;78.20;;;;;;5027063;28;20089;-63
2021/07/02 06:13:27;;;;;;;15.73;6.97;;;17.10;77.90;;;;;;5026756;28;20150;-63
2021/07/02 06:15:52;;;;;;;12.35;6.40;;;17.20;77.70;;;;;;5026412;28;20053;-64
2021/07/02 06:18:18;;;;;;;8.75;5.93;;;17.30;77.60;;;;;;5026739;28;20313;-63
2021/07/02 06:20:43;;;;;;;13.27;5.85;;;17.30;77.50;;;;;;5026932;28;20025;-62
2021/07/02 06:23:09;;;;;;;10.95;5.35;;;17.30;77.30;;;;;;5026383;28;20053;-63
2021/07/02 06:25:34;;;;;;;7.93;5.25;;;17.30;77.40;;;;;;5026420;28;20060;-63
2021/07/02 06:28:00;;;;;;;8.85;5.40;;;17.30;77.60;;;;;;5026256;28;20186;-63
2021/07/02 06:30:25;;;;;;;8.18;5.22;;;17.30;77.40;;;;;;5026568;28;20108;-63
2021/07/02 06:32:51;;;;;;;10.98;5.03;;;17.40;77.30;;;;;;5026616;28;20060;-63
2021/07/02 06:35:16;;;;;;;8.05;5.28;;;17.40;77.30;;;;;;5025613;28;20057;-63
2021/07/02 06:37:48;;;;;;;7.15;4.90;;;17.50;77.10;;;;;;5026731;28;20037;-63
2021/07/02 06:40:13;;;;;;;7.75;5.53;;;17.50;77.10;;;;;;5009602;28;20034;-64
2021/07/02 06:42:39;;;;;;;7.28;5.05;;;17.50;77.50;;;;;;5026243;28;20182;-63
2021/07/02 06:45:05;;;;;;;11.10;5.40;;;17.50;77.30;;;;;;5026251;28;20256;-64
2021/07/02 06:47:31;;;;;;;14.18;6.00;;;17.60;77.20;;;;;;5026719;28;20175;-63
2021/07/02 06:49:56;;;;;;;8.98;5.40;;;17.60;76.80;;;;;;5026413;28;20037;-64
2021/07/02 06:52:22;;;;;;;11.82;5.95;;;17.80;75.40;;;;;;5026226;28;20034;-66
2021/07/02 06:54:47;;;;;;;8.77;5.50;;;17.80;75.30;;;;;;5026211;28;20093;-65
2021/07/02 06:57:15;;;;;;;7.85;5.25;;;17.80;75.10;;;;;;5025351;28;20072;-65
2021/07/02 06:59:40;;;;;;;9.35;5.72;;;17.90;75.00;;;;;;5008246;28;20340;-66
2021/07/02 07:02:10;;;;;;;8.15;5.05;;;17.90;74.40;;;;;;5026234;28;20093;-66
2021/07/02 07:04:36;;;;;;;10.77;5.40;;;18.00;74.30;;;;;;5008558;28;20088;-65
2021/07/02 07:07:03;;;;;;;10.48;6.07;;;18.10;73.90;;;;;;5025899;28;20034;-68
2021/07/02 07:09:28;;;;;;;8.88;5.32;;;18.00;74.30;;;;;;5025641;28;20050;-66
2021/07/02 07:11:55;;;;;;;9.77;5.43;;;18.10;73.90;;;;;;5025462;28;20061;-66
2021/07/02 07:14:21;;;;;;;9.68;5.07;;;18.20;72.50;;;;;;5026206;28;20317;-69
2021/07/02 07:16:47;;;;;;;7.93;4.70;;;18.30;71.90;;;;;;5024450;28;20034;-69
2021/07/02 07:19:12;;;;;;;11.45;5.10;;;18.30;72.30;;;;;;5024350;28;20055;-70
2021/07/02 07:21:38;;;;;;;13.73;5.70;;;18.30;71.70;;;;;;5024078;28;20168;-69
2021/07/02 07:24:04;;;;;;;10.07;5.50;;;18.30;71.00;;;;;;5025494;28;20321;-70
2021/07/02 07:26:30;;;;;;;9.63;5.03;;;18.30;71.40;;;;;;5025669;28;20384;-70
2021/07/02 07:28:55;;;;;;;9.98;5.60;;;18.30;71.00;;;;;;5025573;28;20230;-68
2021/07/02 07:31:21;;;;;;;11.32;5.47;;;18.30;71.30;;;;;;5025295;28;20444;-68
2021/07/02 07:33:48;;;;;;;21.17;7.30;;;18.30;70.90;;;;;;5024941;28;20038;-68
2021/07/02 07:36:19;;;;;;;11.88;5.82;;;18.40;70.60;;;;;;5023918;28;20030;-68
2021/07/02 07:38:45;;;;;;;10.05;5.25;;;18.40;70.50;;;;;;5025466;28;20344;-68
2021/07/02 07:41:10;;;;;;;20.45;6.35;;;18.40;69.50;;;;;;5023876;28;20034;-70
2021/07/02 07:43:36;;;;;;;8.50;5.05;;;18.40;70.00;;;;;;5024600;28;20117;-70
2021/07/02 07:46:02;;;;;;;8.95;5.07;;;18.50;69.70;;;;;;5025517;28;20105;-70
2021/07/02 07:48:27;;;;;;;9.32;4.80;;;18.50;69.20;;;;;;5023681;28;20042;-69
2021/07/02 07:51:02;;;;;;;9.35;4.80;;;18.50;67.60;;;;;;5024626;28;20246;-69
2021/07/02 07:53:27;;;;;;;6.65;4.22;;;18.60;67.10;;;;;;5025478;28;20105;-71
2021/07/02 07:55:53;;;;;;;8.70;4.50;;;18.70;67.20;;;;;;5025156;28;20034;-71
2021/07/02 07:58:18;;;;;;;9.75;4.55;;;18.60;68.00;;;;;;5024636;28;20030;-71
2021/07/02 08:00:44;;;;;;;7.32;4.68;;;18.80;67.70;;;;;;5025036;28;20030;-71
2021/07/02 08:03:09;;;;;;;9.65;4.35;;;18.80;66.90;;;;;;5024619;28;20325;-71
2021/07/02 08:05:35;;;;;;;8.02;4.93;;;18.80;67.10;;;;;;5025077;28;20333;-71
2021/07/02 08:08:00;;;;;;;10.10;4.50;;;18.80;66.80;;;;;;5024024;28;20037;-71
2021/07/02 08:10:26;;;;;;;9.18;5.28;;;18.90;67.10;;;;;;5024436;28;20092;-71
2021/07/02 08:12:52;;;;;;;8.30;4.60;;;19.00;67.50;;;;;;5024337;28;20409;-71
2021/07/02 08:15:18;;;;;;;11.10;4.80;;;19.10;67.20;;;;;;5023260;28;20042;-70
2021/07/02 08:17:43;;;;;;;7.95;4.95;;;19.20;67.40;;;;;;5025371;28;20044;-70
2021/07/02 08:20:09;;;;;;;6.72;4.82;;;19.20;67.00;;;;;;5025106;28;20049;-71
2021/07/02 08:22:35;;;;;;;7.47;4.65;;;19.10;65.90;;;;;;5023057;28;20094;-71
2021/07/02 08:25:01;;;;;;;8.02;5.15;;;19.00;66.10;;;;;;5023488;28;20125;-72
2021/07/02 08:27:28;;;;;;;9.65;4.93;;;19.00;65.90;;;;;;5023307;28;20129;-71
2021/07/02 08:29:53;;;;;;;7.93;5.07;;;19.00;65.30;;;;;;5024508;28;20057;-61
2021/07/02 08:32:19;;;;;;;7.43;4.53;;;19.00;66.50;;;;;;5024566;28;20037;-59
2021/07/02 08:34:45;;;;;;;7.75;5.15;;;19.10;67.20;;;;;;5024651;28;20034;-59
2021/07/02 08:37:10;;;;;;;9.70;4.55;;;19.10;67.30;;;;;;5024565;28;20290;-60
2021/07/02 08:39:36;;;;;;;8.02;5.30;;;19.20;67.20;;;;;;5023051;28;20089;-59
2021/07/02 08:42:05;;;;;;;10.93;5.30;;;19.20;67.10;;;;;;5024240;28;20030;-59
2021/07/02 08:44:31;;;;;;;9.93;5.22;;;19.20;66.20;;;;;;5024796;28;20275;-60
2021/07/02 08:46:57;;;;;;;7.45;4.72;;;19.20;66.80;;;;;;5024518;28;20044;-59
2021/07/02 08:49:22;;;;;;;8.75;4.95;;;19.30;67.00;;;;;;5024234;28;20037;-59
2021/07/02 08:51:48;;;;;;;15.15;5.40;;;19.20;66.80;;;;;;5023220;28;20030;-60
2021/07/02 08:54:15;;;;;;;9.60;5.32;;;19.30;66.40;;;;;;5023979;28;20030;-59
2021/07/02 08:56:56;;;;;;;7.70;4.85;;;19.10;65.90;;;;;;5024637;28;20372;-60
2021/07/02 08:59:26;;;;;;;6.80;4.88;;;19.30;68.60;;;;;;5024599;28;20040;-60
2021/07/02 09:01:52;;;;;;;9.10;4.63;;;19.40;66.90;;;;;;5024330;28;20038;-59
2021/07/02 09:04:31;;;;;;;7.63;5.05;;;19.40;66.50;;;;;;5024194;28;20198;-59
2021/07/02 09:07:07;;;;;;;8.02;4.93;;;19.60;66.90;;;;;;5024372;28;20041;-59
2021/07/02 09:09:56;;;;;;;10.77;5.40;;;19.70;66.00;;;;;;5024076;28;20324;-59
2021/07/02 09:12:26;;;;;;;7.40;4.97;;;19.80;65.90;;;;;;5023719;28;20285;-59
2021/07/02 09:15:04;;;;;;;8.07;5.10;;;19.90;64.40;;;;;;5024416;28;20260;-59
2021/07/02 09:17:31;;;;;;;9.00;4.93;;;19.90;65.80;;;;;;5024394;28;20038;-60
2021/07/02 09:20:04;;;;;;;7.40;4.90;;;19.90;66.60;;;;;;5023614;28;20368;-60
2021/07/02 09:22:29;;;;;;;12.10;4.75;;;20.10;66.60;;;;;;5026400;28;20057;-59
2021/07/02 09:24:55;;;;;;;9.00;4.82;;;20.20;65.40;;;;;;5026352;28;20217;-59
2021/07/02 09:27:25;;;;;;;8.38;4.90;;;20.20;65.10;;;;;;5027770;28;20033;-59
2021/07/02 09:30:00;;;;;;;7.07;4.65;;;20.20;64.10;;;;;;5028299;28;20053;-59
2021/07/02 09:32:26;;;;;;;8.38;4.32;;;20.30;64.50;;;;;;5028161;28;20038;-58
2021/07/02 09:34:58;;;;;;;8.50;5.03;;;20.60;62.60;;;;;;5026836;28;20096;-59
2021/07/02 09:37:26;;;;;;;6.00;4.38;;;20.80;61.90;;;;;;5026998;28;20033;-58
2021/07/02 09:39:52;;;;;;;7.55;4.80;;;20.80;61.40;;;;;;5026502;28;20021;-58
2021/07/02 09:42:29;;;;;;;7.80;4.72;;;21.00;60.10;;;;;;5026220;28;20053;-59
2021/07/02 09:45:11;;;;;;;6.85;4.70;;;21.10;62.00;;;;;;5027210;28;20294;-59
2021/07/02 09:47:39;;;;;;;6.70;4.65;;;21.30;60.80;;;;;;5027916;28;20025;-59
2021/07/02 09:50:24;;;;;;;8.73;4.50;;;21.30;60.40;;;;;;5027654;28;20037;-59
2021/07/02 09:53:00;;;;;;;6.07;3.92;;;21.50;58.50;;;;;;5026299;28;20094;-59
2021/07/02 09:55:31;;;;;;;5.53;3.90;;;21.50;57.40;;;;;;5027087;28;20065;-59
2021/07/02 09:58:06;;;;;;;7.30;4.47;;;21.60;58.60;;;;;;5027446;28;20034;-59
2021/07/02 10:00:40;;;;;;;10.32;4.90;;;21.60;58.60;;;;;;5026980;28;20129;-58
2021/07/02 10:03:06;;;;;;;7.63;4.70;;;21.50;57.80;;;;;;5042269;28;20329;-59
2021/07/02 10:05:55;;;;;;;9.82;4.72;;;21.50;56.70;;;;;;5027618;28;20029;-59
2021/07/02 10:08:26;;;;;;;6.80;4.60;;;21.60;56.40;;;;;;5027540;28;20044;-59
2021/07/02 10:10:52;;;;;;;10.70;4.47;;;21.60;57.00;;;;;;5026247;28;20071;-59
2021/07/02 10:13:22;;;;;;;7.97;4.70;;;21.60;56.30;;;;;;5026517;28;20049;-59
2021/07/02 10:15:48;;;;;;;6.82;4.00;;;21.80;56.40;;;;;;5027051;28;20080;-59
2021/07/02 10:18:15;;;;;;;6.05;4.60;;;21.90;55.50;;;;;;5026303;28;20030;-59
2021/07/02 10:20:41;;;;;;;6.88;4.32;;;22.00;55.80;;;;;;5026902;28;20321;-58
2021/07/02 10:23:07;;;;;;;10.60;4.63;;;22.10;56.90;;;;;;5026359;28;20077;-59
2021/07/02 10:25:32;;;;;;;9.48;4.28;;;22.20;56.10;;;;;;5025433;28;20360;-59
2021/07/02 10:27:58;;;;;;;5.65;3.80;;;22.30;55.60;;;;;;5026365;28;20084;-60
2021/07/02 10:30:24;;;;;;;7.13;4.00;;;22.40;55.30;;;;;;5026583;28;20030;-59
2021/07/02 10:32:53;;;;;;;5.60;3.83;;;22.50;55.30;;;;;;5025465;28;20072;-60
2021/07/02 10:35:19;;;;;;;6.90;4.40;;;22.40;55.00;;;;;;5025470;28;20085;-60
2021/07/02 10:37:47;;;;;;;7.30;4.13;;;22.40;54.90;;;;;;5025625;28;20380;-59
2021/07/02 10:40:37;;;;;;;6.30;3.80;;;22.50;54.10;;;;;;5025515;28;20041;-59
2021/07/02 10:43:07;;;;;;;4.88;3.40;;;22.70;53.10;;;;;;5026527;28;20068;-59
2021/07/02 10:45:33;;;;;;;6.47;3.45;;;22.70;53.00;;;;;;5026398;28;20210;-60
2021/07/02 10:47:59;;;;;;;13.80;3.63;;;22.80;52.80;;;;;;5024790;28;20055;-60
2021/07/02 10:50:39;;;;;;;5.82;3.67;;;22.80;52.70;;;;;;5026560;28;20018;-58
2021/07/02 10:53:27;;;;;;;5.22;3.30;;;22.90;51.40;;;;;;5026450;28;20222;-58
2021/07/02 10:55:52;;;;;;;6.70;3.67;;;23.00;51.60;;;;;;5026333;28;20380;-59
2021/07/02 10:58:20;;;;;;;6.40;3.40;;;23.10;51.60;;;;;;5025999;28;20093;-58
2021/07/02 11:01:08;;;;;;;7.53;3.88;;;23.10;53.00;;;;;;5026291;28;20026;-58
2021/07/02 11:03:34;;;;;;;4.65;3.35;;;22.90;53.20;;;;;;5024884;28;20056;-58
2021/07/02 11:06:34;;;;;;;5.35;3.38;;;22.90;50.80;;;;;;5025705;28;20037;-58
2021/07/02 11:09:00;;;;;;;6.97;3.57;;;23.10;52.50;;;;;;5024580;28;20068;-58
2021/07/02 11:11:25;;;;;;;5.70;3.85;;;23.10;53.10;;;;;;5026160;28;20025;-58
2021/07/02 11:14:10;;;;;;;7.32;3.65;;;23.00;53.00;;;;;;5024818;28;20030;-58
2021/07/02 11:17:16;;;;;;;5.95;3.80;;;22.80;51.60;;;;;;5025728;28;20348;-59
2021/07/02 11:19:41;;;;;;;4.93;3.85;;;22.70;50.90;;;;;;5021844;28;20084;-59
2021/07/02 11:22:27;;;;;;;7.07;3.97;;;22.70;51.50;;;;;;5025192;28;20112;-59
2021/07/02 11:25:00;;;;;;;5.20;3.72;;;22.90;52.60;;;;;;5025530;28;20101;-59
2021/07/02 11:27:47;;;;;;;7.68;4.00;;;23.10;53.30;;;;;;5025551;28;20088;-59
2021/07/02 11:32:56;;;;;;;7.30;3.72;;;23.30;53.10;;;;;;5025561;28;20030;-58
2021/07/02 11:35:27;;;;;;;20.05;3.78;;;23.40;53.00;;;;;;5025714;28;20029;-62
2021/07/02 11:37:59;;;;;;;8.65;3.53;;;23.50;53.20;;;;;;5025678;28;20232;-64
2021/07/02 11:40:32;;;;;;;7.20;3.55;;;23.50;51.70;;;;;;5025489;28;20237;-67
2021/07/02 11:42:58;;;;;;;3.92;3.10;;;23.70;52.40;;;;;;5024994;28;20037;-67
2021/07/02 11:45:43;;;;;;;6.07;3.38;;;23.60;50.90;;;;;;5024500;28;20101;-63
2021/07/02 11:48:21;;;;;;;9.07;3.58;;;23.50;49.20;;;;;;5025033;28;20036;-67
2021/07/02 11:50:58;;;;;;;7.00;3.40;;;23.50;49.90;;;;;;4993188;28;20022;-70
2021/07/02 11:53:40;;;;;;;51.95;6.03;;;23.70;55.30;;;;;;5007885;28;20041;-64
2021/07/02 11:56:16;;;;;;;8.38;3.28;;;23.30;77.40;;;;;;5023930;28;20034;-69
2021/07/02 11:58:42;;;;;;;7.85;3.35;;;23.30;53.50;;;;;;5023380;28;20053;-69
2021/07/02 12:01:09;;;;;;;4.47;2.85;;;23.70;51.40;;;;;;5024853;28;20325;-76
2021/07/02 12:03:43;;;;;;;4.50;2.97;;;23.80;50.10;;;;;;5023705;28;20058;-68
2021/07/02 12:06:09;;;;;;;5.70;3.00;;;24.00;51.40;;;;;;5024466;28;20033;-67
2021/07/02 12:08:34;;;;;;;4.53;3.13;;;24.20;51.10;;;;;;5025201;28;20025;-67
2021/07/02 12:11:06;;;;;;;4.20;2.83;;;24.30;49.10;;;;;;5023823;28;20030;-67
2021/07/02 12:13:33;;;;;;;4.95;3.30;;;24.30;48.40;;;;;;5024360;28;20349;-69
2021/07/02 12:16:06;;;;;;;6.32;3.45;;;24.20;49.00;;;;;;5024644;28;20030;-68
2021/07/02 12:18:53;;;;;;;4.50;2.83;;;24.30;48.80;;;;;;5023956;28;20068;-67
2021/07/02 12:21:37;;;;;;;7.07;3.08;;;24.40;50.90;;;;;;5023162;28;20064;-67
2021/07/02 12:24:22;;;;;;;4.63;2.80;;;24.50;49.30;;;;;;5024122;28;20204;-67
2021/07/02 12:27:14;;;;;;;5.82;3.45;;;24.60;48.60;;;;;;5024191;28;20048;-67
2021/07/02 12:29:59;;;;;;;4.68;2.88;;;24.70;48.50;;;;;;5023959;28;20029;-68
2021/07/02 12:32:43;;;;;;;9.27;2.80;;;24.50;47.40;;;;;;5024330;28;20037;-67
2021/07/02 12:35:27;;;;;;;5.18;2.88;;;24.60;47.70;;;;;;5023096;28;20056;-68
2021/07/02 12:38:15;;;;;;;5.15;2.90;;;24.70;48.40;;;;;;5024259;28;20062;-69
2021/07/02 12:40:59;;;;;;;4.07;2.75;;;24.80;48.40;;;;;;5024089;28;20029;-68
2021/07/02 12:43:43;;;;;;;8.32;3.05;;;24.80;48.00;;;;;;5018994;28;20041;-68
2021/07/02 12:46:28;;;;;;;6.68;2.90;;;25.00;47.60;;;;;;5024268;28;20037;-69
2021/07/02 12:49:18;;;;;;;6.35;3.30;;;25.00;45.90;;;;;;5023131;28;20034;-70
2021/07/02 12:52:00;;;;;;;4.80;3.30;;;24.80;45.60;;;;;;5024052;28;20325;-67
2021/07/02 12:57:16;;;;;;;6.47;3.00;;;24.50;45.50;;;;;;5021834;28;20068;-68